Terminal Aerodrome Forecast
Issued by NWS Milwaukee/Sullivan, WI

Home | Current Version | Previous Version | Text Only | Print | Product List | Glossary On
Versions: 1 2 3 4 5 6 7 8 9 10 11 12 13 14 15 16 17 18 19 20 21 22 23
000
FTUS43 KMKX 300520
TAFMSN
TAF
KMSN 300520Z 3006/3106 08011KT P6SM -RA SCT015 OVC035 WS020/08035KT
     FM300700 08012KT 6SM RA OVC030 WS020/08035KT
     FM300900 08013G20KT 5SM RA BR SCT008 OVC015
     FM301600 08015G25KT 3SM RA BR OVC008
     FM301800 07015G26KT 2SM RA BR OVC003
     FM310000 05015G24KT 3SM BR VCSH OVC006=

USA.gov is the U.S. government's official web portal to all federal, state and local government web resources and services.